Main page
METAR-TAF:

METAR-TAF

Airports :

Rørvik Airport. Ryum

Rørvik, Norway

latitude: 64-50N, longitude: 011-09E, elevation: 4 m

Current weather observation

The report was made 50 minutes ago, at 04:50 UTC
Wind 10 kt from the West/Southwest
Temperature 14°C
Humidity 94%
Pressure 1014 hPa
Visibility 10 km or more
Scattered clouds at a height of 500 ft
Broken clouds at a height of 700 ft
light rain,

METAR: ENRM 180450Z 25010KT 9999 -RA SCT005 BKN007 14/13 Q1014

Time: 07:40 (05:40 UTC)

Forecast

The report was made 3 hours and 40 minutes ago, at 02:00 UTC
Forecast valid from 18 at 03 UTC to 18 at 12 UTC
Wind 12 kt from the West/Southwest
Visibility 10 km or more
Scattered clouds at a height of 300 ft
Broken clouds at a height of 600 ft
light rain
Temporary
from 18 at 03 UTC to 18 at 12 UTC
Visibility: 2500 m
Broken clouds at a height of 300 ft
rain, drizzle, mist,

TAF: ENRM 180200Z 1803/1812 24012KT 9999 -RA SCT003 BKN006 TEMPO 1803/1812 2500 RADZ BR BKN003

Weather observations and forecasts of more than 4000 airports (METAR and TAF reports).

The available stations are represented by yellow and red dots on the map.

Hover mouse over dot to see the name of the station.

Then click to see weather observations and forecasts.

To change the map : click on the green buttons with a black cross to zoom in, on the green button with a dash to zoom out, or on the green arrows for adjacent maps.


METAR-TAF: